sensor_id;sensor_type;location;lat;lon;timestamp;pressure;altitude;pressure_sealevel;temperature;humidity
22104;BME280;11218;48.886;9.426;2023-02-14T00:01:39;99896.25;;;1.26;88.46
22104;BME280;11218;48.886;9.426;2023-02-14T00:04:07;99901.00;;;1.22;87.99
22104;BME280;11218;48.886;9.426;2023-02-14T00:06:35;99903.81;;;1.21;88.88
22104;BME280;11218;48.886;9.426;2023-02-14T00:09:05;99894.31;;;1.18;88.90
22104;BME280;11218;48.886;9.426;2023-02-14T00:11:33;99893.78;;;1.15;88.12
22104;BME280;11218;48.886;9.426;2023-02-14T00:14:01;99892.09;;;1.14;87.05
22104;BME280;11218;48.886;9.426;2023-02-14T00:16:49;99900.47;;;1.09;87.90
22104;BME280;11218;48.886;9.426;2023-02-14T00:19:19;99891.97;;;1.06;88.16
22104;BME280;11218;48.886;9.426;2023-02-14T00:21:48;99898.94;;;1.07;88.81
22104;BME280;11218;48.886;9.426;2023-02-14T00:24:18;99897.97;;;1.08;89.75
22104;BME280;11218;48.886;9.426;2023-02-14T00:26:47;99892.94;;;1.05;89.20
22104;BME280;11218;48.886;9.426;2023-02-14T00:29:17;99892.81;;;1.06;89.46
22104;BME280;11218;48.886;9.426;2023-02-14T00:31:46;99886.66;;;1.06;89.19
22104;BME280;11218;48.886;9.426;2023-02-14T00:34:17;99893.50;;;1.08;90.40
22104;BME280;11218;48.886;9.426;2023-02-14T00:36:45;99900.63;;;1.08;89.63
22104;BME280;11218;48.886;9.426;2023-02-14T00:39:14;99901.31;;;1.10;89.67
22104;BME280;11218;48.886;9.426;2023-02-14T00:41:43;99894.47;;;1.07;89.69
22104;BME280;11218;48.886;9.426;2023-02-14T00:44:12;99897.28;;;1.06;89.32
22104;BME280;11218;48.886;9.426;2023-02-14T00:46:40;99889.59;;;1.03;89.90
22104;BME280;11218;48.886;9.426;2023-02-14T00:49:09;99895.47;;;1.06;89.51
22104;BME280;11218;48.886;9.426;2023-02-14T00:51:38;99888.78;;;1.02;89.13
22104;BME280;11218;48.886;9.426;2023-02-14T00:54:06;99887.50;;;1.06;89.42
22104;BME280;11218;48.886;9.426;2023-02-14T00:56:35;99891.97;;;1.06;89.99
22104;BME280;11218;48.886;9.426;2023-02-14T00:59:03;99889.47;;;1.04;90.00
22104;BME280;11218;48.886;9.426;2023-02-14T01:01:31;99888.78;;;1.02;89.95
22104;BME280;11218;48.886;9.426;2023-02-14T01:03:59;99891.84;;;0.97;89.00
22104;BME280;11218;48.886;9.426;2023-02-14T01:06:28;99887.81;;;0.93;89.33
22104;BME280;11218;48.886;9.426;2023-02-14T01:08:58;99889.63;;;0.93;90.30
22104;BME280;11218;48.886;9.426;2023-02-14T01:11:26;99886.28;;;0.91;89.37
22104;BME280;11218;48.886;9.426;2023-02-14T01:13:57;99890.59;;;0.92;90.44
22104;BME280;11218;48.886;9.426;2023-02-14T01:16:26;99891.84;;;0.97;89.84
22104;BME280;11218;48.886;9.426;2023-02-14T01:18:55;99885.16;;;0.93;89.51
22104;BME280;11218;48.886;9.426;2023-02-14T01:21:24;99893.38;;;1.00;89.32
22104;BME280;11218;48.886;9.426;2023-02-14T01:23:54;99877.63;;;0.98;89.78
22104;BME280;11218;48.886;9.426;2023-02-14T01:26:24;99884.88;;;0.96;89.52
22104;BME280;11218;48.886;9.426;2023-02-14T01:28:53;99882.09;;;0.98;90.53
22104;BME280;11218;48.886;9.426;2023-02-14T01:31:23;99889.63;;;0.93;89.32
22104;BME280;11218;48.886;9.426;2023-02-14T01:33:53;99892.81;;;0.96;89.78
22104;BME280;11218;48.886;9.426;2023-02-14T01:36:24;99885.00;;;0.95;90.09
22104;BME280;11218;48.886;9.426;2023-02-14T01:38:54;99884.03;;;0.96;90.27
22104;BME280;11218;48.886;9.426;2023-02-14T01:41:26;99884.88;;;0.96;89.37
22104;BME280;11218;48.886;9.426;2023-02-14T01:43:58;99883.19;;;0.95;89.22
22104;BME280;11218;48.886;9.426;2023-02-14T01:46:28;99884.72;;;0.98;90.12
22104;BME280;11218;48.886;9.426;2023-02-14T01:49:01;99885.44;;;0.90;90.45
22104;BME280;11218;48.886;9.426;2023-02-14T01:51:31;99880.97;;;0.91;89.72
22104;BME280;11218;48.886;9.426;2023-02-14T01:54:02;99870.53;;;0.89;89.82
22104;BME280;11218;48.886;9.426;2023-02-14T01:56:36;99869.13;;;0.85;90.79
22104;BME280;11218;48.886;9.426;2023-02-14T01:59:08;99872.34;;;0.89;90.42
22104;BME280;11218;48.886;9.426;2023-02-14T02:01:37;99877.09;;;0.85;89.77
22104;BME280;11218;48.886;9.426;2023-02-14T02:04:09;99872.63;;;0.86;89.40
22104;BME280;11218;48.886;9.426;2023-02-14T02:06:42;99869.41;;;0.82;90.76
22104;BME280;11218;48.886;9.426;2023-02-14T02:09:15;99860.91;;;0.79;90.41
22104;BME280;11218;48.886;9.426;2023-02-14T02:11:47;99869.97;;;0.76;90.27
22104;BME280;11218;48.886;9.426;2023-02-14T02:14:18;99873.78;;;0.74;90.68
22104;BME280;11218;48.886;9.426;2023-02-14T02:17:08;99875.59;;;0.73;90.31
22104;BME280;11218;48.886;9.426;2023-02-14T02:23:16;99870.28;;;0.73;90.44
22104;BME280;11218;48.886;9.426;2023-02-14T02:26:11;99868.44;;;0.83;88.83
22104;BME280;11218;48.886;9.426;2023-02-14T02:29:17;99870.81;;;0.86;89.70
22104;BME280;11218;48.886;9.426;2023-02-14T02:32:10;99867.19;;;0.78;89.63
22104;BME280;11218;48.886;9.426;2023-02-14T02:35:08;99867.59;;;0.83;89.32
22104;BME280;11218;48.886;9.426;2023-02-14T02:37:44;99872.63;;;0.86;89.63
22104;BME280;11218;48.886;9.426;2023-02-14T02:40:28;99869.41;;;0.82;89.25
22104;BME280;11218;48.886;9.426;2023-02-14T02:43:07;99869.28;;;0.84;90.33
22104;BME280;11218;48.886;9.426;2023-02-14T02:45:44;99875.69;;;0.91;88.95
22104;BME280;11218;48.886;9.426;2023-02-14T02:48:35;99876.53;;;0.82;90.00
22104;BME280;11218;48.886;9.426;2023-02-14T02:51:13;99874.31;;;0.77;89.68
22104;BME280;11218;48.886;9.426;2023-02-14T02:54:05;99867.19;;;0.78;88.58
22104;BME280;11218;48.886;9.426;2023-02-14T02:56:40;99867.47;;;0.75;88.41
22104;BME280;11218;48.886;9.426;2023-02-14T02:59:18;99869.47;;;0.73;89.97
22104;BME280;11218;48.886;9.426;2023-02-14T03:01:52;99865.28;;;0.70;89.89
22104;BME280;11218;48.886;9.426;2023-02-14T03:04:22;99860.81;;;0.71;90.39
22104;BME280;11218;48.886;9.426;2023-02-14T03:07:10;99864.44;;;0.70;89.43
22104;BME280;11218;48.886;9.426;2023-02-14T03:09:58;99864.31;;;0.71;89.41
22104;BME280;11218;48.886;9.426;2023-02-14T03:13:01;99864.03;;;0.64;89.78
22104;BME280;11218;48.886;9.426;2023-02-14T03:15:40;99867.66;;;0.63;90.49
22104;BME280;11218;48.886;9.426;2023-02-14T03:18:20;99864.03;;;0.64;89.30
22104;BME280;11218;48.886;9.426;2023-02-14T03:21:20;99871.84;;;0.66;90.18
22104;BME280;11218;48.886;9.426;2023-02-14T03:23:56;99867.09;;;0.60;89.71
22104;BME280;11218;48.886;9.426;2023-02-14T03:26:29;99878.25;;;0.54;89.80
22104;BME280;11218;48.886;9.426;2023-02-14T03:29:09;99869.75;;;0.50;90.10
22104;BME280;11218;48.886;9.426;2023-02-14T03:31:45;99873.38;;;0.49;90.11
22104;BME280;11218;48.886;9.426;2023-02-14T03:34:22;99873.22;;;0.51;90.68
22104;BME280;11218;48.886;9.426;2023-02-14T03:36:59;99872.97;;;0.54;90.04
22104;BME280;11218;48.886;9.426;2023-02-14T03:39:36;99872.41;;;0.60;90.50
22104;BME280;11218;48.886;9.426;2023-02-14T03:42:11;99861.94;;;0.58;90.57
22104;BME280;11218;48.886;9.426;2023-02-14T03:44:41;99864.59;;;0.58;89.72
22104;BME280;11218;48.886;9.426;2023-02-14T03:47:11;99861.94;;;0.58;90.37
22104;BME280;11218;48.886;9.426;2023-02-14T03:49:45;99861.66;;;0.52;89.38
22104;BME280;11218;48.886;9.426;2023-02-14T03:52:15;99854.97;;;0.57;89.89
22104;BME280;11218;48.886;9.426;2023-02-14T03:54:47;99860.13;;;0.59;89.00
22104;BME280;11218;48.886;9.426;2023-02-14T03:57:21;99858.31;;;0.50;88.88
22104;BME280;11218;48.886;9.426;2023-02-14T03:59:51;99849.13;;;0.44;89.92
22104;BME280;11218;48.886;9.426;2023-02-14T04:02:23;99849.81;;;0.46;89.94
22104;BME280;11218;48.886;9.426;2023-02-14T04:04:54;99858.47;;;0.39;89.59
22104;BME280;11218;48.886;9.426;2023-02-14T04:07:23;99854.13;;;0.38;89.39
22104;BME280;11218;48.886;9.426;2023-02-14T04:09:52;99848.00;;;0.37;89.01
22104;BME280;11218;48.886;9.426;2023-02-14T04:12:20;99851.06;;;0.32;89.38
22104;BME280;11218;48.886;9.426;2023-02-14T04:15:03;99849.13;;;0.25;89.09
22104;BME280;11218;48.886;9.426;2023-02-14T04:17:31;99854.56;;;0.23;89.23
22104;BME280;11218;48.886;9.426;2023-02-14T04:20:16;99855.53;;;0.22;88.18
22104;BME280;11218;48.886;9.426;2023-02-14T04:22:45;99857.34;;;0.12;88.71
22104;BME280;11218;48.886;9.426;2023-02-14T04:25:14;99862.50;;;0.14;88.38
22104;BME280;11218;48.886;9.426;2023-02-14T04:27:43;99857.88;;;0.06;89.08
22104;BME280;11218;48.886;9.426;2023-02-14T04:30:11;99859.41;;;0.09;88.72
22104;BME280;11218;48.886;9.426;2023-02-14T04:32:40;99854.28;;;-0.03;88.56
22104;BME280;11218;48.886;9.426;2023-02-14T04:35:08;99847.88;;;0.00;88.65
22104;BME280;11218;48.886;9.426;2023-02-14T04:37:36;99845.91;;;0.02;89.29
22104;BME280;11218;48.886;9.426;2023-02-14T04:40:05;99847.44;;;-0.05;89.62
22104;BME280;11218;48.886;9.426;2023-02-14T04:42:35;99850.53;;;0.00;89.40
22104;BME280;11218;48.886;9.426;2023-02-14T04:45:03;99845.63;;;-0.05;89.97
22104;BME280;11218;48.886;9.426;2023-02-14T04:47:31;99846.34;;;-0.03;89.69
22104;BME280;11218;48.886;9.426;2023-02-14T04:49:59;99846.47;;;-0.04;89.07
22104;BME280;11218;48.886;9.426;2023-02-14T04:52:27;99838.81;;;-0.07;89.74
22104;BME280;11218;48.886;9.426;2023-02-14T04:54:55;99844.25;;;-0.09;89.49
22104;BME280;11218;48.886;9.426;2023-02-14T04:57:23;99844.81;;;-0.05;89.77
22104;BME280;11218;48.886;9.426;2023-02-14T04:59:53;99844.91;;;-0.16;89.18
22104;BME280;11218;48.886;9.426;2023-02-14T05:02:21;99843.66;;;-0.22;89.87
22104;BME280;11218;48.886;9.426;2023-02-14T05:04:49;99842.38;;;-0.27;90.50
22104;BME280;11218;48.886;9.426;2023-02-14T05:07:18;99843.66;;;-0.22;89.82
22104;BME280;11218;48.886;9.426;2023-02-14T05:09:46;99837.09;;;-0.27;89.49
22104;BME280;11218;48.886;9.426;2023-02-14T05:12:14;99836.66;;;-0.32;90.71
22104;BME280;11218;48.886;9.426;2023-02-14T05:14:42;99842.09;;;-0.34;90.94
22104;BME280;11218;48.886;9.426;2023-02-14T05:17:12;99839.88;;;-0.29;91.01
22104;BME280;11218;48.886;9.426;2023-02-14T05:19:40;99840.59;;;-0.27;90.44
22104;BME280;11218;48.886;9.426;2023-02-14T05:22:08;99846.03;;;-0.19;90.37
22104;BME280;11218;48.886;9.426;2023-02-14T05:24:36;99843.94;;;-0.15;90.57
22104;BME280;11218;48.886;9.426;2023-02-14T05:27:05;99843.38;;;-0.19;89.88
22104;BME280;11218;48.886;9.426;2023-02-14T05:29:33;99842.53;;;-0.19;90.29
22104;BME280;11218;48.886;9.426;2023-02-14T05:32:01;99836.97;;;-0.16;89.33
22104;BME280;11218;48.886;9.426;2023-02-14T05:34:31;99840.59;;;-0.27;90.33
22104;BME280;11218;48.886;9.426;2023-02-14T05:36:59;99839.88;;;-0.29;90.21
22104;BME280;11218;48.886;9.426;2023-02-14T05:39:29;99834.03;;;-0.32;90.44
22104;BME280;11218;48.886;9.426;2023-02-14T05:41:57;99840.31;;;-0.24;89.38
22104;BME280;11218;48.886;9.426;2023-02-14T05:44:25;99836.81;;;-0.34;89.36
22104;BME280;11218;48.886;9.426;2023-02-14T05:46:53;99840.28;;;-0.34;89.96
22104;BME280;11218;48.886;9.426;2023-02-14T05:49:21;99835.56;;;-0.30;90.45
22104;BME280;11218;48.886;9.426;2023-02-14T05:51:51;99841.41;;;-0.36;89.44
22104;BME280;11218;48.886;9.426;2023-02-14T05:54:20;99838.47;;;-0.33;90.01
22104;BME280;11218;48.886;9.426;2023-02-14T05:56:48;99844.56;;;-0.42;89.63
22104;BME280;11218;48.886;9.426;2023-02-14T05:59:16;99848.59;;;-0.48;89.84
22104;BME280;11218;48.886;9.426;2023-02-14T06:01:44;99855.53;;;-0.56;90.06
22104;BME280;11218;48.886;9.426;2023-02-14T06:04:12;99856.09;;;-0.53;90.28
22104;BME280;11218;48.886;9.426;2023-02-14T06:06:40;99862.91;;;-0.50;91.15
22104;BME280;11218;48.886;9.426;2023-02-14T06:09:10;99866.00;;;-0.45;90.61
22104;BME280;11218;48.886;9.426;2023-02-14T06:11:38;99866.56;;;-0.42;90.33
22104;BME280;11218;48.886;9.426;2023-02-14T06:14:06;99865.75;;;-0.42;90.61
22104;BME280;11218;48.886;9.426;2023-02-14T06:16:34;99871.31;;;-0.36;90.05
22104;BME280;11218;48.886;9.426;2023-02-14T06:19:03;99870.91;;;-0.31;90.73
22104;BME280;11218;48.886;9.426;2023-02-14T06:21:31;99867.00;;;-0.37;90.28
22104;BME280;11218;48.886;9.426;2023-02-14T06:23:58;99863.38;;;-0.36;89.48
22104;BME280;11218;48.886;9.426;2023-02-14T06:26:28;99872.16;;;-0.35;90.45
22104;BME280;11218;48.886;9.426;2023-02-14T06:28:57;99865.19;;;-0.36;89.81
22104;BME280;11218;48.886;9.426;2023-02-14T06:31:25;99867.13;;;-0.38;89.34
22104;BME280;11218;48.886;9.426;2023-02-14T06:33:54;99865.88;;;-0.44;89.38
22104;BME280;11218;48.886;9.426;2023-02-14T06:36:22;99862.66;;;-0.47;89.93
22104;BME280;11218;48.886;9.426;2023-02-14T06:38:51;99865.88;;;-0.44;89.67
22104;BME280;11218;48.886;9.426;2023-02-14T06:41:19;99867.53;;;-0.43;89.73
22104;BME280;11218;48.886;9.426;2023-02-14T06:43:49;99869.09;;;-0.40;89.39
22104;BME280;11218;48.886;9.426;2023-02-14T06:46:17;99871.84;;;-0.42;89.78
22104;BME280;11218;48.886;9.426;2023-02-14T06:48:45;99867.53;;;-0.43;89.32
22104;BME280;11218;48.886;9.426;2023-02-14T06:51:14;99872.56;;;-0.40;89.33
22104;BME280;11218;48.886;9.426;2023-02-14T06:53:42;99867.97;;;-0.38;89.18
22104;BME280;11218;48.886;9.426;2023-02-14T06:56:10;99879.00;;;-0.32;89.61
22104;BME280;11218;48.886;9.426;2023-02-14T06:58:38;99876.22;;;-0.31;89.06
22104;BME280;11218;48.886;9.426;2023-02-14T07:01:07;99873.28;;;-0.28;89.12
22104;BME280;11218;48.886;9.426;2023-02-14T07:03:35;99883.03;;;-0.28;89.19
22104;BME280;11218;48.886;9.426;2023-02-14T07:06:04;99875.94;;;-0.28;88.34
22104;BME280;11218;48.886;9.426;2023-02-14T07:08:32;99882.47;;;-0.32;88.80
22104;BME280;11218;48.886;9.426;2023-02-14T07:11:00;99880.53;;;-0.30;89.30
22104;BME280;11218;48.886;9.426;2023-02-14T07:13:29;99883.19;;;-0.30;88.77
22104;BME280;11218;48.886;9.426;2023-02-14T07:15:57;99874.97;;;-0.27;88.44
22104;BME280;11218;48.886;9.426;2023-02-14T07:18:26;99880.97;;;-0.25;89.15
22104;BME280;11218;48.886;9.426;2023-02-14T07:20:54;99868.44;;;-0.23;88.39
22104;BME280;11218;48.886;9.426;2023-02-14T07:23:22;99876.25;;;-0.21;88.97
22104;BME280;11218;48.886;9.426;2023-02-14T07:25:51;99873.47;;;-0.20;88.48
22104;BME280;11218;48.886;9.426;2023-02-14T07:28:21;99867.19;;;-0.19;88.26
22104;BME280;11218;48.886;9.426;2023-02-14T07:30:49;99872.34;;;-0.17;88.80
22104;BME280;11218;48.886;9.426;2023-02-14T07:33:17;99864.56;;;-0.19;88.42
22104;BME280;11218;48.886;9.426;2023-02-14T07:35:47;99859.41;;;-0.20;88.78
22104;BME280;11218;48.886;9.426;2023-02-14T07:38:15;99860.50;;;-0.23;87.91
22104;BME280;11218;48.886;9.426;2023-02-14T07:40:43;99862.56;;;-0.36;88.20
22104;BME280;11218;48.886;9.426;2023-02-14T07:43:11;99865.88;;;-0.44;88.28
22104;BME280;11218;48.886;9.426;2023-02-14T07:45:39;99867.13;;;-0.38;89.25
22104;BME280;11218;48.886;9.426;2023-02-14T07:48:07;99861.59;;;-0.35;89.04
22104;BME280;11218;48.886;9.426;2023-02-14T07:50:35;99862.56;;;-0.26;88.65
22104;BME280;11218;48.886;9.426;2023-02-14T07:53:04;99863.44;;;-0.16;88.80
22104;BME280;11218;48.886;9.426;2023-02-14T07:55:34;99861.94;;;-0.09;88.22
22104;BME280;11218;48.886;9.426;2023-02-14T07:58:02;99867.50;;;-0.03;88.64
22104;BME280;11218;48.886;9.426;2023-02-14T08:00:30;99865.69;;;-0.02;87.42
22104;BME280;11218;48.886;9.426;2023-02-14T08:02:58;99868.34;;;-0.02;87.79
22104;BME280;11218;48.886;9.426;2023-02-14T08:05:26;99868.75;;;0.03;88.73
22104;BME280;11218;48.886;9.426;2023-02-14T08:07:54;99871.00;;;-0.02;89.31
22104;BME280;11218;48.886;9.426;2023-02-14T08:10:24;99869.16;;;0.08;88.84
22104;BME280;11218;48.886;9.426;2023-02-14T08:12:52;99866.25;;;0.11;88.93
22104;BME280;11218;48.886;9.426;2023-02-14T08:15:30;99867.22;;;0.20;89.85
22104;BME280;11218;48.886;9.426;2023-02-14T08:18:17;99867.78;;;0.33;89.10
22104;BME280;11218;48.886;9.426;2023-02-14T08:20:45;99866.97;;;0.42;88.37
22104;BME280;11218;48.886;9.426;2023-02-14T08:23:15;99866.25;;;0.50;88.63
22104;BME280;11218;48.886;9.426;2023-02-14T08:25:45;99858.72;;;0.64;89.53
22104;BME280;11218;48.886;9.426;2023-02-14T08:28:13;99856.88;;;0.75;88.93
22104;BME280;11218;48.886;9.426;2023-02-14T08:30:42;99864.38;;;0.89;88.64
22104;BME280;11218;48.886;9.426;2023-02-14T08:33:10;99866.72;;;1.02;88.35
22104;BME280;11218;48.886;9.426;2023-02-14T08:35:38;99869.06;;;1.14;88.72
22104;BME280;11218;48.886;9.426;2023-02-14T08:38:06;99866.25;;;1.25;88.41
22104;BME280;11218;48.886;9.426;2023-02-14T08:40:35;99859.50;;;1.41;88.43
22104;BME280;11218;48.886;9.426;2023-02-14T08:43:05;99858.69;;;1.58;87.92
22104;BME280;11218;48.886;9.426;2023-02-14T08:45:33;99857.59;;;1.78;87.97
22104;BME280;11218;48.886;9.426;2023-02-14T08:48:03;99853.59;;;1.92;88.23
22104;BME280;11218;48.886;9.426;2023-02-14T08:50:31;99854.91;;;2.06;87.99
22104;BME280;11218;48.886;9.426;2023-02-14T08:52:59;99853.41;;;2.21;87.97
22104;BME280;11218;48.886;9.426;2023-02-14T08:55:28;99848.69;;;2.33;87.27
22104;BME280;11218;48.886;9.426;2023-02-14T08:57:56;99848.53;;;2.52;86.94
22104;BME280;11218;48.886;9.426;2023-02-14T09:00:28;99837.66;;;2.63;86.42
22104;BME280;11218;48.886;9.426;2023-02-14T09:02:57;99838.25;;;2.75;85.77
22104;BME280;11218;48.886;9.426;2023-02-14T09:05:27;99834.34;;;2.87;86.26
22104;BME280;11218;48.886;9.426;2023-02-14T09:07:55;99839.38;;;2.98;85.26
22104;BME280;11218;48.886;9.426;2023-02-14T09:10:24;99825.97;;;3.08;85.12
22104;BME280;11218;48.886;9.426;2023-02-14T09:12:54;99844.63;;;3.16;85.18
22104;BME280;11218;48.886;9.426;2023-02-14T09:15:22;99834.41;;;3.29;85.01
22104;BME280;11218;48.886;9.426;2023-02-14T09:17:51;99829.81;;;3.39;84.20
22104;BME280;11218;48.886;9.426;2023-02-14T09:20:20;99828.22;;;3.54;83.77
22104;BME280;11218;48.886;9.426;2023-02-14T09:22:48;99823.59;;;3.65;83.92
22104;BME280;11218;48.886;9.426;2023-02-14T09:25:17;99816.28;;;3.75;83.17
22104;BME280;11218;48.886;9.426;2023-02-14T09:27:45;99816.66;;;3.88;82.75
22104;BME280;11218;48.886;9.426;2023-02-14T09:30:14;99819.00;;;3.99;81.86
22104;BME280;11218;48.886;9.426;2023-02-14T09:32:42;99819.03;;;4.07;81.87
22104;BME280;11218;48.886;9.426;2023-02-14T09:35:12;99811.72;;;4.17;81.95
22104;BME280;11218;48.886;9.426;2023-02-14T09:37:40;99811.38;;;4.28;81.43
22104;BME280;11218;48.886;9.426;2023-02-14T09:40:09;99817.91;;;4.42;81.38
22104;BME280;11218;48.886;9.426;2023-02-14T09:42:47;99806.22;;;4.51;81.32
22104;BME280;11218;48.886;9.426;2023-02-14T09:45:18;99808.88;;;4.68;80.50
22104;BME280;11218;48.886;9.426;2023-02-14T09:47:51;99806.88;;;4.70;79.66
22104;BME280;11218;48.886;9.426;2023-02-14T09:50:26;99809.03;;;4.82;79.61
22104;BME280;11218;48.886;9.426;2023-02-14T09:52:57;99811.50;;;4.92;78.80
22104;BME280;11218;48.886;9.426;2023-02-14T09:55:33;99818.84;;;4.98;78.36
22104;BME280;11218;48.886;9.426;2023-02-14T09:58:07;99809.97;;;5.14;78.69
22104;BME280;11218;48.886;9.426;2023-02-14T10:00:41;99807.25;;;5.22;78.30
22104;BME280;11218;48.886;9.426;2023-02-14T10:03:53;99800.69;;;5.33;77.54
22104;BME280;11218;48.886;9.426;2023-02-14T10:06:40;99788.66;;;5.45;76.74
22104;BME280;11218;48.886;9.426;2023-02-14T10:09:18;99790.94;;;5.56;76.65
22104;BME280;11218;48.886;9.426;2023-02-14T10:11:49;99788.88;;;5.66;75.99
22104;BME280;11218;48.886;9.426;2023-02-14T10:14:19;99786.16;;;5.74;75.69
22104;BME280;11218;48.886;9.426;2023-02-14T10:16:50;99781.78;;;5.89;75.32
22104;BME280;11218;48.886;9.426;2023-02-14T10:19:23;99781.69;;;5.98;74.01
22104;BME280;11218;48.886;9.426;2023-02-14T10:21:57;99783.66;;;6.04;74.12
22104;BME280;11218;48.886;9.426;2023-02-14T10:24:29;99776.53;;;6.19;74.30
22104;BME280;11218;48.886;9.426;2023-02-14T10:27:02;99778.19;;;6.20;72.94
22104;BME280;11218;48.886;9.426;2023-02-14T10:29:36;99774.22;;;6.39;73.88
22104;BME280;11218;48.886;9.426;2023-02-14T10:32:11;99769.03;;;6.60;72.95
22104;BME280;11218;48.886;9.426;2023-02-14T10:34:43;99759.44;;;6.66;72.62
22104;BME280;11218;48.886;9.426;2023-02-14T10:37:31;99759.44;;;6.80;72.64
22104;BME280;11218;48.886;9.426;2023-02-14T10:40:30;99751.22;;;6.97;71.89
22104;BME280;11218;48.886;9.426;2023-02-14T10:43:06;99758.91;;;7.14;71.27
22104;BME280;11218;48.886;9.426;2023-02-14T10:45:46;99757.97;;;7.22;70.98
22104;BME280;11218;48.886;9.426;2023-02-14T10:48:25;99754.47;;;7.36;70.84
22104;BME280;11218;48.886;9.426;2023-02-14T10:51:03;99742.78;;;7.44;70.75
22104;BME280;11218;48.886;9.426;2023-02-14T10:53:39;99750.78;;;7.58;70.02
22104;BME280;11218;48.886;9.426;2023-02-14T10:56:17;99749.66;;;7.68;69.43
22104;BME280;11218;48.886;9.426;2023-02-14T10:58:48;99739.56;;;7.84;68.19
22104;BME280;11218;48.886;9.426;2023-02-14T11:01:17;99735.53;;;7.95;68.24
22104;BME280;11218;48.886;9.426;2023-02-14T11:03:52;99734.41;;;8.04;68.13
22104;BME280;11218;48.886;9.426;2023-02-14T11:06:21;99730.75;;;8.12;67.84
22104;BME280;11218;48.886;9.426;2023-02-14T11:08:50;99725.88;;;8.22;66.41
22104;BME280;11218;48.886;9.426;2023-02-14T11:11:26;99719.25;;;8.39;66.71
22104;BME280;11218;48.886;9.426;2023-02-14T11:13:56;99720.72;;;8.42;66.56
22104;BME280;11218;48.886;9.426;2023-02-14T11:16:30;99718.31;;;8.53;65.82
22104;BME280;11218;48.886;9.426;2023-02-14T11:19:08;99714.47;;;8.63;65.91
22104;BME280;11218;48.886;9.426;2023-02-14T11:21:38;99711.88;;;8.76;65.28
22104;BME280;11218;48.886;9.426;2023-02-14T11:24:18;99702.66;;;8.85;65.01
22104;BME280;11218;48.886;9.426;2023-02-14T11:26:47;99706.41;;;8.97;64.93
22104;BME280;11218;48.886;9.426;2023-02-14T11:29:24;99701.66;;;8.99;64.02
22104;BME280;11218;48.886;9.426;2023-02-14T11:31:53;99700.06;;;9.05;64.94
22104;BME280;11218;48.886;9.426;2023-02-14T11:34:31;99693.13;;;9.23;64.82
22104;BME280;11218;48.886;9.426;2023-02-14T11:37:03;99696.03;;;9.29;64.24
22104;BME280;11218;48.886;9.426;2023-02-14T11:39:43;99687.38;;;9.33;63.92
22104;BME280;11218;48.886;9.426;2023-02-14T11:42:12;99688.25;;;9.47;62.52
22104;BME280;11218;48.886;9.426;2023-02-14T11:44:54;99682.06;;;9.46;62.66
22104;BME280;11218;48.886;9.426;2023-02-14T11:47:26;99679.16;;;9.48;62.68
22104;BME280;11218;48.886;9.426;2023-02-14T11:49:55;99678.78;;;9.58;63.02
22104;BME280;11218;48.886;9.426;2023-02-14T11:52:24;99673.81;;;9.61;61.58
22104;BME280;11218;48.886;9.426;2023-02-14T11:54:57;99665.50;;;9.43;62.12
22104;BME280;11218;48.886;9.426;2023-02-14T11:57:27;99663.69;;;9.57;62.23
22104;BME280;11218;48.886;9.426;2023-02-14T12:00:00;99670.72;;;9.77;62.82
22104;BME280;11218;48.886;9.426;2023-02-14T12:02:35;99659.38;;;9.82;61.97
22104;BME280;11218;48.886;9.426;2023-02-14T12:05:14;99661.03;;;10.03;61.37
22104;BME280;11218;48.886;9.426;2023-02-14T12:07:45;99659.78;;;9.92;61.02
22104;BME280;11218;48.886;9.426;2023-02-14T12:10:24;99649.88;;;9.93;61.67
22104;BME280;11218;48.886;9.426;2023-02-14T12:12:58;99654.41;;;9.99;61.46
22104;BME280;11218;48.886;9.426;2023-02-14T12:15:32;99656.69;;;10.08;61.34
22104;BME280;11218;48.886;9.426;2023-02-14T12:18:41;99645.13;;;10.08;60.96
22104;BME280;11218;48.886;9.426;2023-02-14T12:21:39;99634.97;;;10.10;61.34
22104;BME280;11218;48.886;9.426;2023-02-14T12:24:19;99648.00;;;10.13;60.79
22104;BME280;11218;48.886;9.426;2023-02-14T12:26:55;99638.28;;;10.05;61.25
22104;BME280;11218;48.886;9.426;2023-02-14T12:29:30;99641.38;;;10.09;61.15
22104;BME280;11218;48.886;9.426;2023-02-14T12:32:06;99636.00;;;10.02;61.47
22104;BME280;11218;48.886;9.426;2023-02-14T12:34:38;99630.84;;;10.14;60.69
22104;BME280;11218;48.886;9.426;2023-02-14T12:37:13;99622.56;;;10.09;61.26
22104;BME280;11218;48.886;9.426;2023-02-14T12:39:57;99614.06;;;10.12;61.13
22104;BME280;11218;48.886;9.426;2023-02-14T12:42:39;99609.13;;;10.22;61.12
22104;BME280;11218;48.886;9.426;2023-02-14T12:45:16;99607.47;;;10.28;61.09
22104;BME280;11218;48.886;9.426;2023-02-14T12:47:52;99610.16;;;10.34;60.53
22104;BME280;11218;48.886;9.426;2023-02-14T12:50:39;99599.19;;;10.36;61.10
22104;BME280;11218;48.886;9.426;2023-02-14T12:53:32;99598.16;;;10.37;61.12
22104;BME280;11218;48.886;9.426;2023-02-14T12:56:07;99602.25;;;10.46;60.46
22104;BME280;11218;48.886;9.426;2023-02-14T12:58:56;99591.06;;;10.49;60.51
22104;BME280;11218;48.886;9.426;2023-02-14T13:04:42;99594.75;;;10.54;60.27
22104;BME280;11218;48.886;9.426;2023-02-14T13:07:19;99583.81;;;10.49;60.19
22104;BME280;11218;48.886;9.426;2023-02-14T13:09:57;99577.34;;;10.64;60.39
22104;BME280;11218;48.886;9.426;2023-02-14T13:12:34;99582.31;;;10.67;60.39
22104;BME280;11218;48.886;9.426;2023-02-14T13:15:17;99583.53;;;10.71;60.99
22104;BME280;11218;48.886;9.426;2023-02-14T13:17:52;99576.09;;;10.66;60.09
22104;BME280;11218;48.886;9.426;2023-02-14T13:20:38;99571.72;;;10.72;60.39
22104;BME280;11218;48.886;9.426;2023-02-14T13:23:13;99575.03;;;10.74;59.94
22104;BME280;11218;48.886;9.426;2023-02-14T13:25:45;99565.31;;;10.66;60.61
22104;BME280;11218;48.886;9.426;2023-02-14T13:28:18;99561.13;;;10.83;60.56
22104;BME280;11218;48.886;9.426;2023-02-14T13:30:48;99565.25;;;10.86;60.39
22104;BME280;11218;48.886;9.426;2023-02-14T13:33:25;99565.63;;;10.96;59.48
22104;BME280;11218;48.886;9.426;2023-02-14T13:36:02;99554.03;;;10.89;60.08
22104;BME280;11218;48.886;9.426;2023-02-14T13:38:39;99549.28;;;10.91;59.38
22104;BME280;11218;48.886;9.426;2023-02-14T13:41:09;99548.00;;;10.94;59.80
22104;BME280;11218;48.886;9.426;2023-02-14T13:43:52;99549.47;;;10.96;60.21